| time (UTC) | temp F | wind direction | speed MPH | gust MPH | rain 1hr in | rain 24hr in | rain mn in | humidity % | barometer mb |
| 20260906211237 | 91 | 25 | 5.0 | 7.0 | 0.00 | 0.00 | 0.00 | 37 | 1014.4 |
| 20260906210732 | 93 | 156 | 3.0 | 3.0 | 0.00 | 0.00 | 0.00 | 36 | 1014.7 |
| 20260906210227 | 91 | 179 | 0.0 | 0.0 | 0.00 | 0.00 | 0.00 | 35 | 1014.5 |
| 20260906205722 | 89 | 150 | 5.0 | 5.0 | 0.00 | 0.00 | 0.00 | 41 | 1014.7 |
| 20260906205219 | 91 | 81 | 0.0 | 0.0 | 0.00 | 0.00 | 0.00 | 38 | 1014.7 |
| 20260906204719 | 89 | 119 | 5.0 | 5.0 | 0.00 | 0.00 | 0.00 | 40 | 1014.8 |
| 20260906204218 | 89 | 105 | 0.0 | 0.0 | 0.00 | 0.00 | 0.00 | 41 | 1015.1 |
| 20260906203718 | 88 | 80 | 6.0 | 7.0 | 0.00 | 0.00 | 0.00 | 43 | 1015.1 |
| 20260906203213 | 88 | 125 | 1.0 | 2.0 | 0.00 | 0.00 | 0.00 | 43 | 1015.1 |
| 20260906202710 | 88 | 29 | 3.0 | 5.0 | 0.00 | 0.00 | 0.00 | 43 | 1015.1 |
| 20260906202209 | 87 | 144 | 4.0 | 5.0 | 0.00 | 0.00 | 0.00 | 44 | 1015.1 |
| 20260906201704 | 86 | 35 | 4.0 | 5.0 | 0.00 | 0.00 | 0.00 | 44 | 1015.2 |
| 20260906201203 | 86 | 42 | 7.0 | 10.0 | 0.00 | 0.00 | 0.00 | 45 | 1015.1 |
| 20260906200659 | 87 | 26 | 0.0 | 0.0 | 0.00 | 0.00 | 0.00 | 44 | 1015.3 |
| 20260906200155 | 87 | 52 | 6.0 | 9.0 | 0.00 | 0.00 | 0.00 | 45 | 1015.5 |
| 20260906195650 | 86 | 128 | 2.0 | 3.0 | 0.00 | 0.00 | 0.00 | 46 | 1015.5 |
| 20260906195147 | 85 | 62 | 2.0 | 3.0 | 0.00 | 0.00 | 0.00 | 42 | 1015.5 |
| 20260906194643 | 86 | 60 | 4.0 | 5.0 | 0.00 | 0.00 | 0.00 | 43 | 1015.3 |
| 20260906194138 | 85 | 54 | 5.0 | 7.0 | 0.00 | 0.00 | 0.00 | 46 | 1015.6 |
| 20260906193632 | 85 | 78 | 4.0 | 7.0 | 0.00 | 0.00 | 0.00 | 45 | 1015.6 |
| 20260906193128 | 86 | 55 | 7.0 | 9.0 | 0.00 | 0.00 | 0.00 | 44 | 1015.7 |
| 20260906192623 | 85 | 100 | 7.0 | 10.0 | 0.00 | 0.00 | 0.00 | 44 | 1015.5 |
| 20260906192122 | 86 | 75 | 7.0 | 9.0 | 0.00 | 0.00 | 0.00 | 45 | 1015.8 |
| 20260906191617 | 85 | 5 | 1.0 | 2.0 | 0.00 | 0.00 | 0.00 | 47 | 1015.7 |
| 20260906191116 | 85 | 63 | 2.0 | 2.0 | 0.00 | 0.00 | 0.00 | 47 | 1015.8 |
| 20260906190611 | 85 | 140 | 2.0 | 3.0 | 0.00 | 0.00 | 0.00 | 47 | 1015.9 |
| 20260906190106 | 86 | 85 | 5.0 | 7.0 | 0.00 | 0.00 | 0.00 | 47 | 1016.0 |
| 20260906185604 | 85 | 138 | 0.0 | 2.0 | 0.00 | 0.00 | 0.00 | 46 | 1016.1 |
| 20260906185104 | 86 | 88 | 5.0 | 7.0 | 0.00 | 0.00 | 0.00 | 45 | 1016.4 |
| 20260906184558 | 87 | 38 | 2.0 | 3.0 | 0.00 | 0.00 | 0.00 | 45 | 1016.7 |
| 20260906184054 | 85 | 124 | 1.0 | 2.0 | 0.00 | 0.00 | 0.00 | 46 | 1016.8 |
| 20260906183550 | 84 | 105 | 2.0 | 3.0 | 0.00 | 0.00 | 0.00 | 47 | 1016.6 |
| 20260906183046 | 84 | 153 | 0.0 | 2.0 | 0.00 | 0.00 | 0.00 | 50 | 1016.7 |
| 20260906182540 | 83 | 31 | 5.0 | 7.0 | 0.00 | 0.00 | 0.00 | 51 | 1016.8 |
| 20260906182037 | 83 | 116 | 3.0 | 5.0 | 0.00 | 0.00 | 0.00 | 51 | 1017.1 |
| 20260906181532 | 86 | 235 | 4.0 | 7.0 | 0.00 | 0.00 | 0.00 | 50 | 1017.3 |
| 20260906181027 | 86 | 214 | 2.0 | 3.0 | 0.00 | 0.00 | 0.00 | 48 | 1017.5 |
| 20260906180522 | 84 | 141 | 3.0 | 5.0 | 0.00 | 0.00 | 0.00 | 50 | 1017.4 |
| 20260906180021 | 83 | 71 | 0.0 | 0.0 | 0.00 | 0.00 | 0.00 | 52 | 1017.4 |
| 20260906175515 | 82 | 40 | 0.0 | 2.0 | 0.00 | 0.00 | 0.00 | 53 | 1017.6 |
| 20260906175014 | 84 | 323 | 7.0 | 9.0 | 0.00 | 0.00 | 0.00 | 52 | 1017.6 |
| 20260906174508 | 81 | 187 | 2.0 | 3.0 | 0.00 | 0.00 | 0.00 | 53 | 1017.9 |
| 20260906174003 | 81 | 51 | 3.0 | 3.0 | 0.00 | 0.00 | 0.00 | 55 | 1017.8 |
| 20260906173458 | 80 | 69 | 3.0 | 3.0 | 0.00 | 0.00 | 0.00 | 55 | 1018.0 |
| 20260906172957 | 81 | 349 | 3.0 | 3.0 | 0.00 | 0.00 | 0.00 | 56 | 1017.9 |
| 20260906172453 | 80 | 284 | 3.0 | 5.0 | 0.00 | 0.00 | 0.00 | 53 | 1018.1 |
| 20260906171948 | 80 | 123 | 0.0 | 0.0 | 0.00 | 0.00 | 0.00 | 55 | 1018.2 |
| 20260906171443 | 80 | 301 | 0.0 | 0.0 | 0.00 | 0.00 | 0.00 | 57 | 1018.4 |
| 20260906170939 | 80 | 299 | 0.0 | 0.0 | 0.00 | 0.00 | 0.00 | 56 | 1018.7 |
| 20260906170435 | 79 | 253 | 2.0 | 2.0 | 0.00 | 0.00 | 0.00 | 57 | 1018.3 |
| 20260906165932 | 78 | 255 | 4.0 | 5.0 | 0.00 | 0.00 | 0.00 | 61 | 1018.7 |
| 20260906165431 | 79 | 58 | 0.0 | 2.0 | 0.00 | 0.00 | 0.00 | 57 | 1018.8 |
| 20260906164926 | 78 | 318 | 0.0 | 2.0 | 0.00 | 0.00 | 0.00 | 59 | 1018.7 |
| 20260906164424 | 76 | 117 | 3.0 | 3.0 | 0.00 | 0.00 | 0.00 | 62 | 1018.6 |
| 20260906163920 | 76 | 40 | 3.0 | 3.0 | 0.00 | 0.00 | 0.00 | 62 | 1018.6 |
| 20260906163411 | 77 | 126 | 4.0 | 5.0 | 0.00 | 0.00 | 0.00 | 60 | 1018.7 |
| 20260906162909 | 74 | 92 | 7.0 | 7.0 | 0.00 | 0.00 | 0.00 | 65 | 1018.7 |
| 20260906162408 | 75 | 61 | 4.0 | 5.0 | 0.00 | 0.00 | 0.00 | 66 | 1018.4 |
| 20260906161903 | 75 | 26 | 1.0 | 2.0 | 0.00 | 0.00 | 0.00 | 65 | 1018.6 |
| 20260906161402 | 75 | 320 | 6.0 | 7.0 | 0.00 | 0.00 | 0.00 | 65 | 1018.7 |
| 20260906160901 | 74 | 329 | 5.0 | 7.0 | 0.00 | 0.00 | 0.00 | 66 | 1018.8 |
| 20260906160354 | 75 | 61 | 2.0 | 2.0 | 0.00 | 0.00 | 0.00 | 65 | 1018.8 |
| 20260906155852 | 73 | 6 | 0.0 | 2.0 | 0.00 | 0.00 | 0.00 | 68 | 1018.7 |
| 20260906155341 | 73 | 43 | 0.0 | 2.0 | 0.00 | 0.00 | 0.00 | 68 | 1018.9 |
| 20260906154838 | 72 | 61 | 2.0 | 3.0 | 0.00 | 0.00 | 0.00 | 68 | 1018.8 |
| 20260906154332 | 73 | 52 | 4.0 | 7.0 | 0.00 | 0.00 | 0.00 | 69 | 1018.8 |
| 20260906153830 | 72 | 22 | 3.0 | 3.0 | 0.00 | 0.00 | 0.00 | 69 | 1018.7 |
| 20260906153324 | 72 | 329 | 6.0 | 7.0 | 0.00 | 0.00 | 0.00 | 70 | 1018.8 |
| 20260906152819 | 71 | 320 | 1.0 | 2.0 | 0.00 | 0.00 | 0.00 | 71 | 1019.0 |
| 20260906152315 | 71 | 305 | 0.0 | 0.0 | 0.00 | 0.00 | 0.00 | 71 | 1019.0 |
| 20260906151814 | 70 | 351 | 3.0 | 3.0 | 0.00 | 0.00 | 0.00 | 72 | 1019.0 |
| 20260906151310 | 70 | 281 | 2.0 | 2.0 | 0.00 | 0.00 | 0.00 | 74 | 1019.0 |
| 20260906150805 | 70 | 291 | 0.0 | 2.0 | 0.00 | 0.00 | 0.00 | 73 | 1019.1 |
| 20260906150301 | 71 | 326 | 1.0 | 2.0 | 0.00 | 0.00 | 0.00 | 71 | 1019.2 |
| 20260906145759 | 70 | 296 | 0.0 | 0.0 | 0.00 | 0.00 | 0.00 | 74 | 1019.1 |
| 20260906145258 | 71 | 100 | 3.0 | 3.0 | 0.00 | 0.00 | 0.00 | 72 | 1019.0 |
| 20260906144753 | 70 | 51 | 5.0 | 7.0 | 0.00 | 0.00 | 0.00 | 73 | 1018.9 |
| 20260906144248 | 69 | 54 | 3.0 | 5.0 | 0.00 | 0.00 | 0.00 | 75 | 1018.8 |
| 20260906143748 | 69 | 67 | 0.0 | 0.0 | 0.00 | 0.00 | 0.00 | 75 | 1018.9 |
| 20260906143245 | 69 | 79 | 5.0 | 5.0 | 0.00 | 0.00 | 0.00 | 75 | 1019.2 |
| 20260906142744 | 68 | 346 | 2.0 | 3.0 | 0.00 | 0.00 | 0.00 | 76 | 1019.0 |
| 20260906142240 | 68 | 348 | 0.0 | 2.0 | 0.00 | 0.00 | 0.00 | 77 | 1019.2 |
| 20260906141738 | 68 | 331 | 3.0 | 3.0 | 0.00 | 0.00 | 0.00 | 76 | 1019.4 |
| 20260906141233 | 68 | 45 | 4.0 | 5.0 | 0.00 | 0.00 | 0.00 | 77 | 1019.1 |
| 20260906140732 | 67 | 320 | 1.0 | 3.0 | 0.00 | 0.00 | 0.00 | 78 | 1019.0 |
| 20260906140228 | 67 | 318 | 0.0 | 2.0 | 0.00 | 0.00 | 0.00 | 79 | 1019.0 |
| 20260906135724 | 66 | 319 | 0.0 | 0.0 | 0.00 | 0.00 | 0.00 | 79 | 1019.0 |
| 20260906135221 | 66 | 319 | 3.0 | 3.0 | 0.00 | 0.00 | 0.00 | 80 | 1019.0 |
| 20260906134716 | 65 | 319 | 2.0 | 3.0 | 0.00 | 0.00 | 0.00 | 82 | 1018.8 |
| 20260906134211 | 64 | 317 | 0.0 | 2.0 | 0.00 | 0.00 | 0.00 | 83 | 1018.7 |
| 20260906133707 | 65 | 318 | 3.0 | 3.0 | 0.00 | 0.00 | 0.00 | 83 | 1018.9 |
| 20260906133202 | 65 | 317 | 0.0 | 0.0 | 0.00 | 0.00 | 0.00 | 84 | 1019.1 |
| 20260906132657 | 64 | 325 | 3.0 | 7.0 | 0.00 | 0.00 | 0.00 | 84 | 1018.8 |
| 20260906132153 | 64 | 327 | 2.0 | 3.0 | 0.00 | 0.00 | 0.00 | 86 | 1018.8 |
| 20260906131648 | 64 | 327 | 0.0 | 0.0 | 0.00 | 0.00 | 0.00 | 87 | 1018.6 |
| 20260906131143 | 63 | 327 | 3.0 | 3.0 | 0.00 | 0.00 | 0.00 | 87 | 1018.8 |
| 20260906130638 | 63 | 331 | 2.0 | 3.0 | 0.00 | 0.00 | 0.00 | 88 | 1018.8 |
| 20260906130133 | 63 | 337 | 3.0 | 3.0 | 0.00 | 0.00 | 0.00 | 89 | 1018.6 |
| 20260906125625 | 62 | 341 | 0.0 | 0.0 | 0.00 | 0.00 | 0.00 | 90 | 1018.8 |
| 20260906125124 | 62 | 341 | 2.0 | 2.0 | 0.00 | 0.00 | 0.00 | 90 | 1018.6 |
| 20260906124620 | 62 | 341 | 0.0 | 0.0 | 0.00 | 0.00 | 0.00 | 90 | 1018.4 |
| 20260906124114 | 62 | 341 | 0.0 | 2.0 | 0.00 | 0.00 | 0.00 | 91 | 1018.4 |
| 20260906123614 | 62 | 344 | 0.0 | 2.0 | 0.00 | 0.00 | 0.00 | 91 | 1018.4 |
| 20260906123109 | 62 | 347 | 2.0 | 3.0 | 0.00 | 0.00 | 0.00 | 91 | 1018.8 |
| 20260906122603 | 62 | 353 | 0.0 | 0.0 | 0.00 | 0.00 | 0.00 | 91 | 1018.7 |
| 20260906122058 | 62 | 6 | 0.0 | 2.0 | 0.00 | 0.00 | 0.00 | 91 | 1018.4 |
| 20260906121554 | 62 | 14 | 0.0 | 0.0 | 0.00 | 0.00 | 0.00 | 90 | 1018.4 |
| 20260906121051 | 62 | 5 | 0.0 | 0.0 | 0.00 | 0.00 | 0.00 | 90 | 1018.4 |
| 20260906120545 | 62 | 37 | 0.0 | 0.0 | 0.00 | 0.00 | 0.00 | 90 | 1018.2 |
| 20260906120042 | 62 | 352 | 1.0 | 2.0 | 0.00 | 0.00 | 0.00 | 90 | 1018.3 |
| 20260906115536 | 62 | 14 | 2.0 | 2.0 | 0.00 | 0.00 | 0.00 | 89 | 1018.6 |
| 20260906115032 | 62 | 1 | 1.0 | 2.0 | 0.00 | 0.00 | 0.00 | 89 | 1018.4 |
| 20260906114526 | 63 | 35 | 2.0 | 2.0 | 0.00 | 0.00 | 0.00 | 89 | 1018.3 |
| 20260906114022 | 63 | 34 | 0.0 | 0.0 | 0.00 | 0.00 | 0.00 | 88 | 1018.3 |
| 20260906113520 | 63 | 33 | 3.0 | 3.0 | 0.00 | 0.00 | 0.00 | 88 | 1018.3 |
| 20260906113016 | 63 | 343 | 0.0 | 0.0 | 0.00 | 0.00 | 0.00 | 88 | 1018.4 |
| 20260906112511 | 63 | 344 | 0.0 | 0.0 | 0.00 | 0.00 | 0.00 | 88 | 1018.2 |
| 20260906112008 | 63 | 12 | 3.0 | 3.0 | 0.00 | 0.00 | 0.00 | 88 | 1018.2 |
| 20260906111507 | 63 | 346 | 0.0 | 0.0 | 0.00 | 0.00 | 0.00 | 88 | 1018.1 |
| 20260906111002 | 63 | 348 | 1.0 | 2.0 | 0.00 | 0.00 | 0.00 | 88 | 1018.2 |
| 20260906110456 | 63 | 8 | 0.0 | 0.0 | 0.00 | 0.00 | 0.00 | 87 | 1018.4 |
| 20260906105955 | 64 | 32 | 1.0 | 2.0 | 0.00 | 0.00 | 0.00 | 87 | 1018.2 |
| 20260906105452 | 64 | 23 | 0.0 | 2.0 | 0.00 | 0.00 | 0.00 | 86 | 1018.1 |
| 20260906104947 | 64 | 342 | 2.0 | 2.0 | 0.00 | 0.00 | 0.00 | 86 | 1018.1 |
| 20260906104446 | 64 | 355 | 0.0 | 0.0 | 0.00 | 0.00 | 0.00 | 86 | 1018.2 |
| 20260906103945 | 65 | 36 | 2.0 | 3.0 | 0.00 | 0.00 | 0.00 | 85 | 1018.1 |
| 20260906103444 | 65 | 49 | 1.0 | 2.0 | 0.00 | 0.00 | 0.00 | 85 | 1018.2 |
| 20260906102939 | 65 | 37 | 0.0 | 2.0 | 0.00 | 0.00 | 0.00 | 84 | 1018.0 |
| 20260906102439 | 65 | 345 | 0.0 | 0.0 | 0.00 | 0.00 | 0.00 | 84 | 1018.2 |
| 20260906101933 | 65 | 345 | 0.0 | 0.0 | 0.00 | 0.00 | 0.00 | 83 | 1018.3 |
| 20260906101428 | 65 | 2 | 0.0 | 0.0 | 0.00 | 0.00 | 0.00 | 82 | 1018.1 |
| 20260906100923 | 66 | 47 | 2.0 | 2.0 | 0.00 | 0.00 | 0.00 | 82 | 1018.1 |
| 20260906100418 | 66 | 327 | 1.0 | 2.0 | 0.00 | 0.00 | 0.00 | 81 | 1018.0 |
| 20260906095912 | 66 | 326 | 2.0 | 3.0 | 0.00 | 0.00 | 0.00 | 80 | 1018.2 |
| 20260906095408 | 66 | 326 | 3.0 | 3.0 | 0.00 | 0.00 | 0.00 | 80 | 1018.1 |
| 20260906094902 | 66 | 326 | 4.0 | 5.0 | 0.00 | 0.00 | 0.00 | 80 | 1018.0 |
| 20260906094356 | 66 | 351 | 0.0 | 2.0 | 0.00 | 0.00 | 0.00 | 79 | 1018.1 |
| 20260906093853 | 67 | 24 | 0.0 | 0.0 | 0.00 | 0.00 | 0.00 | 78 | 1018.1 |
| 20260906093348 | 67 | 20 | 2.0 | 2.0 | 0.00 | 0.00 | 0.00 | 78 | 1018.3 |
| 20260906092843 | 67 | 335 | 4.0 | 5.0 | 0.00 | 0.00 | 0.00 | 78 | 1017.6 |
| 20260906092337 | 67 | 42 | 1.0 | 2.0 | 0.00 | 0.00 | 0.00 | 77 | 1017.6 |
| 20260906091833 | 67 | 325 | 3.0 | 3.0 | 0.00 | 0.00 | 0.00 | 77 | 1017.4 |
| 20260906091329 | 67 | 326 | 3.0 | 5.0 | 0.00 | 0.00 | 0.00 | 77 | 1017.5 |
| 20260906090826 | 67 | 324 | 3.0 | 5.0 | 0.00 | 0.00 | 0.00 | 77 | 1017.2 |
| 20260906090324 | 67 | 325 | 2.0 | 3.0 | 0.00 | 0.00 | 0.00 | 77 | 1017.5 |
| 20260906085819 | 67 | 325 | 2.0 | 2.0 | 0.00 | 0.00 | 0.00 | 77 | 1017.3 |
| 20260906085318 | 67 | 326 | 0.0 | 2.0 | 0.00 | 0.00 | 0.00 | 77 | 1017.4 |
| 20260906084813 | 67 | 325 | 2.0 | 3.0 | 0.00 | 0.00 | 0.00 | 76 | 1017.6 |
| 20260906084312 | 68 | 325 | 3.0 | 3.0 | 0.00 | 0.00 | 0.00 | 75 | 1017.3 |
| 20260906083807 | 68 | 321 | 0.0 | 0.0 | 0.00 | 0.00 | 0.00 | 75 | 1017.3 |
| 20260906083303 | 68 | 321 | 2.0 | 2.0 | 0.00 | 0.00 | 0.00 | 75 | 1017.3 |
| 20260906082757 | 68 | 321 | 3.0 | 3.0 | 0.00 | 0.00 | 0.00 | 75 | 1017.5 |
| 20260906082252 | 68 | 320 | 4.0 | 5.0 | 0.00 | 0.00 | 0.00 | 74 | 1017.8 |
| 20260906081748 | 68 | 324 | 3.0 | 5.0 | 0.00 | 0.00 | 0.00 | 74 | 1017.6 |
| 20260906081243 | 68 | 323 | 4.0 | 5.0 | 0.00 | 0.00 | 0.00 | 74 | 1017.6 |
| 20260906080739 | 68 | 324 | 5.0 | 7.0 | 0.00 | 0.00 | 0.00 | 74 | 1017.6 |
| 20260906080236 | 68 | 329 | 2.0 | 3.0 | 0.00 | 0.00 | 0.00 | 75 | 1017.5 |
| 20260906075729 | 68 | 334 | 2.0 | 3.0 | 0.00 | 0.00 | 0.00 | 75 | 1017.9 |
| 20260906075224 | 68 | 41 | 2.0 | 3.0 | 0.00 | 0.00 | 0.00 | 76 | 1017.9 |
| 20260906074719 | 68 | 352 | 1.0 | 2.0 | 0.00 | 0.00 | 0.00 | 76 | 1017.6 |
| 20260906074218 | 68 | 43 | 1.0 | 2.0 | 0.00 | 0.00 | 0.00 | 75 | 1017.9 |
| 20260906073713 | 68 | 348 | 2.0 | 2.0 | 0.00 | 0.00 | 0.00 | 75 | 1017.6 |
| 20260906073208 | 68 | 343 | 4.0 | 5.0 | 0.00 | 0.00 | 0.00 | 75 | 1017.4 |
| 20260906072704 | 68 | 335 | 1.0 | 2.0 | 0.00 | 0.00 | 0.00 | 75 | 1017.8 |
| 20260906072159 | 68 | 331 | 5.0 | 5.0 | 0.00 | 0.00 | 0.00 | 73 | 1017.8 |
| 20260906071656 | 68 | 285 | 2.0 | 3.0 | 0.00 | 0.00 | 0.00 | 71 | 1017.6 |
| 20260906071155 | 69 | 265 | 5.0 | 5.0 | 0.00 | 0.00 | 0.00 | 70 | 1017.5 |
| 20260906070652 | 69 | 284 | 5.0 | 5.0 | 0.00 | 0.00 | 0.00 | 69 | 1017.5 |
| 20260906070147 | 69 | 281 | 3.0 | 5.0 | 0.00 | 0.00 | 0.00 | 70 | 1017.4 |
| 20260906065647 | 69 | 271 | 2.0 | 3.0 | 0.00 | 0.00 | 0.00 | 70 | 1017.3 |
| 20260906065142 | 69 | 264 | 3.0 | 3.0 | 0.00 | 0.00 | 0.00 | 70 | 1017.3 |
| 20260906064637 | 69 | 297 | 4.0 | 5.0 | 0.00 | 0.00 | 0.00 | 70 | 1017.3 |
| 20260906064132 | 69 | 317 | 0.0 | 2.0 | 0.00 | 0.00 | 0.00 | 69 | 1017.3 |
| 20260906063627 | 69 | 315 | 1.0 | 3.0 | 0.00 | 0.00 | 0.00 | 68 | 1017.6 |
| 20260906063118 | 69 | 282 | 1.0 | 2.0 | 0.00 | 0.00 | 0.00 | 68 | 1017.4 |
| 20260906062614 | 68 | 237 | 2.0 | 3.0 | 0.00 | 0.00 | 0.00 | 69 | 1017.5 |
| 20260906062112 | 68 | 177 | 2.0 | 2.0 | 0.00 | 0.00 | 0.00 | 69 | 1017.9 |
| 20260906061609 | 69 | 164 | 0.0 | 0.0 | 0.00 | 0.00 | 0.00 | 68 | 1018.0 |
| 20260906061108 | 69 | 14 | 3.0 | 3.0 | 0.00 | 0.00 | 0.00 | 67 | 1017.6 |
| 20260906060605 | 69 | 30 | 1.0 | 2.0 | 0.00 | 0.00 | 0.00 | 65 | 1017.5 |
| 20260906055557 | 70 | 1 | 0.0 | 2.0 | 0.00 | 0.00 | 0.00 | 62 | 1017.4 |
| 20260906055053 | 71 | 7 | 0.0 | 0.0 | 0.00 | 0.00 | 0.00 | 60 | 1017.6 |
| 20260906054553 | 72 | 54 | 1.0 | 2.0 | 0.00 | 0.00 | 0.00 | 58 | 1017.5 |
| 20260906054048 | 72 | 342 | 4.0 | 7.0 | 0.00 | 0.00 | 0.00 | 55 | 1017.2 |
| 20260906053544 | 74 | 334 | 5.0 | 7.0 | 0.00 | 0.00 | 0.00 | 52 | 1017.3 |
| 20260906053039 | 74 | 316 | 4.0 | 5.0 | 0.00 | 0.00 | 0.00 | 51 | 1017.4 |
| 20260906052535 | 74 | 308 | 2.0 | 3.0 | 0.00 | 0.00 | 0.00 | 51 | 1017.5 |
| 20260906052032 | 73 | 241 | 2.0 | 3.0 | 0.00 | 0.00 | 0.00 | 52 | 1017.4 |
| 20260906051527 | 73 | 326 | 2.0 | 2.0 | 0.00 | 0.00 | 0.00 | 52 | 1017.1 |
| 20260906051023 | 73 | 11 | 3.0 | 3.0 | 0.00 | 0.00 | 0.00 | 52 | 1016.9 |
| 20260906050518 | 73 | 18 | 5.0 | 7.0 | 0.00 | 0.00 | 0.00 | 51 | 1017.3 |
| 20260906050012 | 73 | 0 | 2.0 | 2.0 | 0.00 | 0.00 | 0.00 | 51 | 1016.9 |
| 20260906045511 | 72 | 29 | 1.0 | 2.0 | 0.00 | 0.00 | 0.00 | 51 | 1016.9 |
| 20260906045007 | 72 | 23 | 3.0 | 3.0 | 0.00 | 0.00 | 0.00 | 51 | 1016.8 |
| 20260906044502 | 73 | 56 | 1.0 | 2.0 | 0.00 | 0.00 | 0.00 | 48 | 1016.8 |
| 20260906043957 | 73 | 49 | 1.0 | 2.0 | 0.00 | 0.00 | 0.00 | 48 | 1016.7 |
| 20260906043453 | 73 | 317 | 0.0 | 0.0 | 0.00 | 0.00 | 0.00 | 48 | 1016.6 |
| 20260906042949 | 74 | 26 | 0.0 | 0.0 | 0.00 | 0.00 | 0.00 | 47 | 1016.5 |
| 20260906042448 | 75 | 39 | 0.0 | 0.0 | 0.00 | 0.00 | 0.00 | 46 | 1016.6 |
| 20260906041947 | 75 | 4 | 0.0 | 0.0 | 0.00 | 0.00 | 0.00 | 45 | 1016.4 |
| 20260906041444 | 75 | 347 | 0.0 | 0.0 | 0.00 | 0.00 | 0.00 | 44 | 1016.5 |
| 20260906040943 | 75 | 275 | 4.0 | 5.0 | 0.00 | 0.00 | 0.00 | 44 | 1016.5 |
| 20260906040438 | 75 | 287 | 2.0 | 3.0 | 0.00 | 0.00 | 0.00 | 44 | 1016.5 |
| 20260906035934 | 75 | 278 | 5.0 | 5.0 | 0.00 | 0.00 | 0.00 | 43 | 1016.1 |
| 20260906035429 | 75 | 29 | 2.0 | 5.0 | 0.00 | 0.00 | 0.00 | 43 | 1016.3 |
| 20260906034925 | 75 | 305 | 3.0 | 3.0 | 0.00 | 0.00 | 0.00 | 43 | 1016.3 |
| 20260906034419 | 76 | 38 | 2.0 | 3.0 | 0.00 | 0.00 | 0.00 | 43 | 1016.5 |
| 20260906033914 | 76 | 344 | 4.0 | 7.0 | 0.00 | 0.00 | 0.00 | 42 | 1016.0 |
| 20260906033409 | 75 | 318 | 0.0 | 0.0 | 0.00 | 0.00 | 0.00 | 44 | 1016.1 |
| 20260906032905 | 76 | 88 | 5.0 | 7.0 | 0.00 | 0.00 | 0.00 | 43 | 1016.3 |
| 20260906032401 | 76 | 267 | 2.0 | 2.0 | 0.00 | 0.00 | 0.00 | 43 | 1016.0 |
| 20260906031855 | 76 | 302 | 0.0 | 0.0 | 0.00 | 0.00 | 0.00 | 43 | 1015.9 |
| 20260906031351 | 76 | 306 | 0.0 | 0.0 | 0.00 | 0.00 | 0.00 | 43 | 1016.1 |
| 20260906030845 | 76 | 321 | 0.0 | 0.0 | 0.00 | 0.00 | 0.00 | 43 | 1015.8 |
| 20260906030340 | 77 | 292 | 1.0 | 2.0 | 0.00 | 0.00 | 0.00 | 43 | 1015.8 |
| 20260906025835 | 76 | 315 | 0.0 | 0.0 | 0.00 | 0.00 | 0.00 | 43 | 1015.7 |
| 20260906025329 | 77 | 302 | 1.0 | 3.0 | 0.00 | 0.00 | 0.00 | 43 | 1015.9 |
| 20260906024828 | 77 | 295 | 4.0 | 7.0 | 0.00 | 0.00 | 0.00 | 43 | 1015.8 |
| 20260906024327 | 77 | 310 | 4.0 | 7.0 | 0.00 | 0.00 | 0.00 | 42 | 1015.6 |
| 20260906023823 | 77 | 7 | 4.0 | 5.0 | 0.00 | 0.00 | 0.00 | 43 | 1015.7 |
| 20260906023319 | 77 | 332 | 1.0 | 3.0 | 0.00 | 0.00 | 0.00 | 43 | 1015.7 |
| 20260906022814 | 78 | 279 | 2.0 | 3.0 | 0.00 | 0.00 | 0.00 | 42 | 1015.6 |
| 20260906022309 | 78 | 244 | 0.0 | 0.0 | 0.00 | 0.00 | 0.00 | 41 | 1015.8 |
| 20260906021804 | 78 | 332 | 5.0 | 5.0 | 0.00 | 0.00 | 0.00 | 40 | 1015.7 |
| 20260906021258 | 79 | 307 | 5.0 | 9.0 | 0.00 | 0.00 | 0.00 | 40 | 1015.5 |
| 20260906020752 | 79 | 325 | 3.0 | 3.0 | 0.00 | 0.00 | 0.00 | 40 | 1015.2 |
| 20260906020247 | 79 | 292 | 1.0 | 2.0 | 0.00 | 0.00 | 0.00 | 40 | 1015.3 |
| 20260906015741 | 80 | 301 | 2.0 | 2.0 | 0.00 | 0.00 | 0.00 | 39 | 1015.6 |
| 20260906015239 | 80 | 255 | 4.0 | 5.0 | 0.00 | 0.00 | 0.00 | 38 | 1015.1 |
| 20260906014734 | 81 | 259 | 2.0 | 3.0 | 0.00 | 0.00 | 0.00 | 37 | 1015.1 |
| 20260906014230 | 82 | 312 | 5.0 | 9.0 | 0.00 | 0.00 | 0.00 | 35 | 1015.5 |
| 20260906013726 | 82 | 296 | 6.0 | 10.0 | 0.00 | 0.00 | 0.00 | 34 | 1015.1 |
| 20260906013226 | 83 | 280 | 7.0 | 10.0 | 0.00 | 0.00 | 0.00 | 33 | 1014.5 |
| 20260906012721 | 84 | 277 | 4.0 | 5.0 | 0.00 | 0.00 | 0.00 | 33 | 1014.7 |
| 20260906012216 | 84 | 277 | 6.0 | 7.0 | 0.00 | 0.00 | 0.00 | 33 | 1014.5 |
| 20260906011711 | 84 | 272 | 6.0 | 7.0 | 0.00 | 0.00 | 0.00 | 33 | 1014.7 |
| 20260906011206 | 84 | 281 | 3.0 | 5.0 | 0.00 | 0.00 | 0.00 | 32 | 1014.4 |
| 20260906010701 | 84 | 288 | 3.0 | 7.0 | 0.00 | 0.00 | 0.00 | 32 | 1014.7 |
| 20260906010158 | 85 | 282 | 6.0 | 7.0 | 0.00 | 0.00 | 0.00 | 32 | 1014.5 |
| 20260906005657 | 85 | 290 | 5.0 | 9.0 | 0.00 | 0.00 | 0.00 | 32 | 1014.5 |
| 20260906005156 | 86 | 290 | 8.0 | 10.0 | 0.00 | 0.00 | 0.00 | 32 | 1014.8 |
| 20260906004655 | 86 | 317 | 7.0 | 7.0 | 0.00 | 0.00 | 0.00 | 31 | 1014.5 |
| 20260906004151 | 87 | 290 | 8.0 | 10.0 | 0.00 | 0.00 | 0.00 | 30 | 1014.5 |
| 20260906003646 | 87 | 275 | 14.0 | 19.0 | 0.00 | 0.00 | 0.00 | 30 | 1014.5 |
| 20260906003142 | 88 | 245 | 9.0 | 10.0 | 0.00 | 0.00 | 0.00 | 31 | 1014.4 |
| 20260906002636 | 88 | 259 | 5.0 | 5.0 | 0.00 | 0.00 | 0.00 | 30 | 1014.2 |
| 20260906002131 | 89 | 280 | 8.0 | 12.0 | 0.00 | 0.00 | 0.00 | 30 | 1014.3 |
| 20260906001626 | 89 | 303 | 5.0 | 7.0 | 0.00 | 0.00 | 0.00 | 29 | 1014.2 |
| 20260906001126 | 90 | 306 | 5.0 | 7.0 | 0.00 | 0.00 | 0.00 | 28 | 1014.3 |
| 20260906000622 | 90 | 286 | 6.0 | 9.0 | 0.00 | 0.00 | 0.00 | 27 | 1014.1 |
| 20260906000117 | 91 | 272 | 7.0 | 9.0 | 0.00 | 0.00 | 0.00 | 27 | 1014.2 |
| 20260905235616 | 91 | 283 | 7.0 | 10.0 | 0.00 | 0.00 | 0.00 | 26 | 1014.2 |
| 20260905235111 | 92 | 359 | 4.0 | 7.0 | 0.00 | 0.00 | 0.00 | 27 | 1014.4 |
| 20260905234607 | 91 | 350 | 7.0 | 7.0 | 0.00 | 0.00 | 0.00 | 26 | 1014.4 |
| 20260905234102 | 92 | 240 | 3.0 | 5.0 | 0.00 | 0.00 | 0.00 | 26 | 1014.3 |
| 20260905233601 | 92 | 294 | 7.0 | 9.0 | 0.00 | 0.00 | 0.00 | 25 | 1014.3 |
| 20260905233056 | 92 | 289 | 4.0 | 5.0 | 0.00 | 0.00 | 0.00 | 24 | 1014.0 |
| 20260905232551 | 93 | 292 | 1.0 | 2.0 | 0.00 | 0.00 | 0.00 | 23 | 1014.2 |
| 20260905232047 | 94 | 246 | 3.0 | 3.0 | 0.00 | 0.00 | 0.00 | 22 | 1014.2 |
| 20260905231542 | 95 | 66 | 0.0 | 0.0 | 0.00 | 0.00 | 0.00 | 21 | 1014.0 |
| 20260905231038 | 95 | 235 | 0.0 | 2.0 | 0.00 | 0.00 | 0.00 | 21 | 1014.2 |
| 20260905230537 | 96 | 289 | 3.0 | 3.0 | 0.00 | 0.00 | 0.00 | 21 | 1014.1 |
| 20260905230036 | 96 | 251 | 1.0 | 2.0 | 0.00 | 0.00 | 0.00 | 20 | 1014.0 |
| 20260905225531 | 96 | 181 | 0.0 | 0.0 | 0.00 | 0.00 | 0.00 | 20 | 1014.0 |
| 20260905225026 | 95 | 103 | 5.0 | 5.0 | 0.00 | 0.00 | 0.00 | 21 | 1013.8 |
| 20260905224520 | 94 | 275 | 0.0 | 0.0 | 0.00 | 0.00 | 0.00 | 21 | 1013.7 |
| 20260905224020 | 95 | 124 | 5.0 | 7.0 | 0.00 | 0.00 | 0.00 | 22 | 1013.7 |
| 20260905223518 | 96 | 76 | 4.0 | 5.0 | 0.00 | 0.00 | 0.00 | 21 | 1013.8 |
| 20260905223014 | 95 | 140 | 5.0 | 9.0 | 0.00 | 0.00 | 0.00 | 21 | 1014.1 |
| 20260905222513 | 94 | 115 | 6.0 | 7.0 | 0.00 | 0.00 | 0.00 | 21 | 1013.8 |
| 20260905222008 | 95 | 104 | 7.0 | 9.0 | 0.00 | 0.00 | 0.00 | 21 | 1014.1 |
| 20260905221505 | 96 | 359 | 2.0 | 3.0 | 0.00 | 0.00 | 0.00 | 22 | 1014.0 |
| 20260905221001 | 95 | 348 | 4.0 | 5.0 | 0.00 | 0.00 | 0.00 | 22 | 1014.1 |
| 20260905220457 | 95 | 26 | 2.0 | 5.0 | 0.00 | 0.00 | 0.00 | 23 | 1014.2 |
| 20260905215955 | 94 | 55 | 5.0 | 5.0 | 0.00 | 0.00 | 0.00 | 23 | 1014.2 |
| 20260905215451 | 95 | 333 | 6.0 | 10.0 | 0.00 | 0.00 | 0.00 | 23 | 1014.1 |
| 20260905214948 | 96 | 307 | 0.0 | 2.0 | 0.00 | 0.00 | 0.00 | 23 | 1014.2 |
| 20260905214444 | 96 | 281 | 1.0 | 2.0 | 0.00 | 0.00 | 0.00 | 22 | 1014.2 |
| 20260905213944 | 95 | 45 | 5.0 | 5.0 | 0.00 | 0.00 | 0.00 | 22 | 1014.4 |
| 20260905213440 | 94 | 64 | 7.0 | 10.0 | 0.00 | 0.00 | 0.00 | 22 | 1014.5 |
| 20260905212935 | 95 | 39 | 6.0 | 9.0 | 0.00 | 0.00 | 0.00 | 22 | 1014.4 |
| 20260905212430 | 95 | 344 | 9.0 | 12.0 | 0.00 | 0.00 | 0.00 | 23 | 1014.8 |
| 20260905211928 | 95 | 126 | 5.0 | 7.0 | 0.00 | 0.00 | 0.00 | 22 | 1014.5 |
| 20260905211424 | 95 | 159 | 4.0 | 5.0 | 0.00 | 0.00 | 0.00 | 21 | 1015.0 |